Bow Heron — DYTN — position and weather

sailwx.info

Track history (hours):
 
Tides and Currents Weather Stations Pressure Air Temp Water Temp Dewpoint Dewpoint Depression Visibility Wind Speed Wind Dir Waves Ship Positions

Bow Heron

Last reported at 2014-Sep-11 16:20 UTC. Time now 2014-Sep-15 09:31 UTC.
Position N 34°27' W 076°37'.

Length 174 m; draft 7.4 m.

Type: Tanker. MMSI: 548779000.

Date/timePositionNaut miles runAvg speedWind from/ knotsBaromVisibWave heightAir tempDewpointWater temp
2014-Sep-11 16:20N 34°27' W 076°37'1013.3
2014-Sep-11 15:33N 34°37' W 076°41'7 6.5
2014-Sep-11 14:33N 34°43' W 076°42'0 0.0
2014-Sep-11 13:32N 34°43' W 076°42'0 0.0
2014-Sep-11 12:32N 34°43' W 076°42'0 0.0
2014-Sep-11 11:32N 34°43' W 076°42'0 0.0
2014-Sep-11 10:32N 34°43' W 076°42'0 0.0
2014-Sep-11 09:32N 34°43' W 076°42'0 0.0
2014-Sep-11 08:32N 34°43' W 076°42'0 0.0
2014-Sep-11 07:32N 34°43' W 076°42'0 0.0
2014-Sep-11 06:32N 34°43' W 076°42'0 0.0
2014-Sep-11 05:32N 34°43' W 076°42'0 0.0
2014-Sep-11 04:32N 34°43' W 076°42'0 0.0
2014-Sep-11 03:32N 34°43' W 076°42'0 0.0
2014-Sep-11 02:32N 34°43' W 076°42'0 0.0
2014-Sep-11 01:32N 34°43' W 076°42'0 0.0
2014-Sep-11 00:32N 34°43' W 076°42'0 0.0
2014-Sep-10 23:32N 34°43' W 076°42'0 0.0
2014-Sep-10 22:32N 34°43' W 076°42'0 0.0
2014-Sep-10 21:29N 34°43' W 076°42'0 0.0
2014-Sep-10 20:32N 34°43' W 076°42'0 0.0
2014-Sep-10 19:32N 34°43' W 076°42'0 0.0
2014-Sep-10 18:32N 34°43' W 076°42'0 0.0
2014-Sep-10 17:32N 34°43' W 076°42'0 0.0
2014-Sep-10 16:32N 34°43' W 076°42'0 0.0
2014-Sep-10 15:32N 34°43' W 076°42'0 0.0
2014-Sep-10 14:32N 34°43' W 076°42'0 0.0
2014-Sep-10 13:32N 34°43' W 076°42'0 0.0
2014-Sep-10 12:32N 34°43' W 076°42'0 0.0
2014-Sep-10 11:32N 34°43' W 076°42'0 0.0
2014-Sep-10 10:32N 34°43' W 076°42'0 0.0
2014-Sep-10 09:32N 34°43' W 076°42'0 0.0
2014-Sep-10 08:32N 34°43' W 076°42'0 0.0
2014-Sep-10 07:32N 34°43' W 076°42'0 0.0
2014-Sep-10 06:32N 34°43' W 076°42'0 0.0
2014-Sep-10 05:32N 34°43' W 076°42'0 0.0
2014-Sep-10 04:32N 34°43' W 076°42'0 0.0
2014-Sep-10 03:29N 34°43' W 076°42'0 0.0
2014-Sep-10 02:32N 34°43' W 076°42'0 0.0
2014-Sep-10 01:32N 34°43' W 076°42'0 0.0
2014-Sep-10 00:32N 34°43' W 076°42'0 0.0
2014-Sep-09 23:32N 34°43' W 076°42'0 0.0
2014-Sep-09 22:32N 34°43' W 076°42'0 0.0
2014-Sep-09 21:32N 34°43' W 076°42'0 0.0
2014-Sep-09 20:32N 34°43' W 076°42'0 0.0
2014-Sep-09 19:32N 34°43' W 076°42'0 0.0
2014-Sep-09 18:32N 34°43' W 076°42'0 0.0
2014-Sep-09 17:32N 34°43' W 076°42'0 0.0
2014-Sep-09 16:32N 34°43' W 076°42'0 0.0
2014-Sep-09 15:32N 34°43' W 076°42'0 0.0
2014-Sep-09 14:32N 34°43' W 076°42'0 0.0
2014-Sep-09 13:32N 34°43' W 076°42'0 0.0
2014-Sep-09 12:32N 34°43' W 076°42'0 0.0
2014-Sep-09 11:32N 34°43' W 076°42'0 0.0
2014-Sep-09 10:32N 34°43' W 076°42'0 0.0
2014-Sep-09 09:32N 34°43' W 076°42'0 0.0
2014-Sep-09 08:32N 34°43' W 076°42'0 0.0
2014-Sep-09 07:32N 34°43' W 076°42'0 0.0
2014-Sep-09 06:32N 34°43' W 076°42'0 0.0
2014-Sep-09 05:32N 34°43' W 076°42'0 0.0
2014-Sep-09 04:32N 34°43' W 076°42'0 0.0
2014-Sep-09 03:29N 34°43' W 076°42'0 0.0
2014-Sep-09 02:32N 34°43' W 076°42'0 0.0
2014-Sep-09 01:32N 34°43' W 076°42'0 0.0
2014-Sep-09 00:32N 34°43' W 076°42'0 0.0
2014-Sep-08 23:32N 34°43' W 076°42'0 0.0
2014-Sep-08 22:32N 34°43' W 076°42'0 0.0
2014-Sep-08 21:32N 34°43' W 076°42'0 0.0
2014-Sep-08 20:32N 34°43' W 076°42'0 0.0
2014-Sep-08 19:32N 34°43' W 076°42'0 0.0
2014-Sep-08 18:32N 34°43' W 076°42'0 0.0
2014-Sep-08 17:32N 34°43' W 076°42'0 0.0
2014-Sep-08 16:32N 34°43' W 076°42'0 0.0
2014-Sep-08 15:32N 34°43' W 076°42'0 0.0
2014-Sep-08 14:32N 34°43' W 076°42'0 0.0
2014-Sep-08 13:32N 34°43' W 076°42'1 1.5
2014-Sep-08 12:33N 34°42' W 076°41'7 7.0
2014-Sep-08 11:34N 34°35' W 076°40'1 1.1
2014-Sep-08 10:33N 34°34' W 076°41'3 3.0
2014-Sep-08 09:33N 34°32' W 076°43'8 8.1
2014-Sep-08 08:33N 34°24' W 076°46'  
2014-Sep-06 03:33N 27°05' W 079°44'2017.8
2014-Sep-06 02:27N 26°45' W 079°47'1617.8
2014-Sep-06 01:33N 26°29' W 079°48'1817.8
2014-Sep-06 00:34N 26°11' W 079°49'1817.7
2014-Sep-05 23:34N 25°54' W 079°51'1817.8
2014-Sep-05 22:32N 25°35' W 079°52'1717.7
2014-Sep-05 21:33N 25°18' W 079°54'1817.3
2014-Sep-05 20:33N 25°01' W 079°55'  
2014-Sep-03 06:29N 29°21' W 094°44'7 8.1
2014-Sep-03 05:33N 29°26' W 094°50'1010.1
2014-Sep-03 04:33N 29°35' W 094°56'9 9.0
2014-Sep-03 03:33N 29°42' W 095°01'5 5.2
2014-Sep-03 02:33N 29°44' W 095°07'6 5.5
2014-Sep-03 01:33N 29°43' W 095°13'  
Track history (hours):
 
Tides and Currents Weather Stations Pressure Air Temp Water Temp Dewpoint Dewpoint Depression Visibility Wind Speed Wind Dir Waves Ship Positions

Bow Heron

Last reported at 2014-Sep-11 16:20 UTC. Time now 2014-Sep-15 09:31 UTC.
Position N 34°27' W 076°37'.

Length 174 m; draft 7.4 m.

Type: Tanker. MMSI: 548779000.

Date/timePositionNaut miles runAvg speedWind from/ knotsBaromVisibWave heightAir tempDewpointWater temp
2014-Sep-11 16:20N 34°27' W 076°37'1013.3
2014-Sep-11 15:33N 34°37' W 076°41'7 6.5
2014-Sep-11 14:33N 34°43' W 076°42'0 0.0
2014-Sep-11 13:32N 34°43' W 076°42'0 0.0
2014-Sep-11 12:32N 34°43' W 076°42'0 0.0
2014-Sep-11 11:32N 34°43' W 076°42'0 0.0
2014-Sep-11 10:32N 34°43' W 076°42'0 0.0
2014-Sep-11 09:32N 34°43' W 076°42'0 0.0
2014-Sep-11 08:32N 34°43' W 076°42'0 0.0
2014-Sep-11 07:32N 34°43' W 076°42'0 0.0
2014-Sep-11 06:32N 34°43' W 076°42'0 0.0
2014-Sep-11 05:32N 34°43' W 076°42'0 0.0
2014-Sep-11 04:32N 34°43' W 076°42'0 0.0
2014-Sep-11 03:32N 34°43' W 076°42'0 0.0
2014-Sep-11 02:32N 34°43' W 076°42'0 0.0
2014-Sep-11 01:32N 34°43' W 076°42'0 0.0
2014-Sep-11 00:32N 34°43' W 076°42'0 0.0
2014-Sep-10 23:32N 34°43' W 076°42'0 0.0
2014-Sep-10 22:32N 34°43' W 076°42'0 0.0
2014-Sep-10 21:29N 34°43' W 076°42'0 0.0
2014-Sep-10 20:32N 34°43' W 076°42'0 0.0
2014-Sep-10 19:32N 34°43' W 076°42'0 0.0
2014-Sep-10 18:32N 34°43' W 076°42'0 0.0
2014-Sep-10 17:32N 34°43' W 076°42'0 0.0
2014-Sep-10 16:32N 34°43' W 076°42'0 0.0
2014-Sep-10 15:32N 34°43' W 076°42'0 0.0
2014-Sep-10 14:32N 34°43' W 076°42'0 0.0
2014-Sep-10 13:32N 34°43' W 076°42'0 0.0
2014-Sep-10 12:32N 34°43' W 076°42'0 0.0
2014-Sep-10 11:32N 34°43' W 076°42'0 0.0
2014-Sep-10 10:32N 34°43' W 076°42'0 0.0
2014-Sep-10 09:32N 34°43' W 076°42'0 0.0
2014-Sep-10 08:32N 34°43' W 076°42'0 0.0
2014-Sep-10 07:32N 34°43' W 076°42'0 0.0
2014-Sep-10 06:32N 34°43' W 076°42'0 0.0
2014-Sep-10 05:32N 34°43' W 076°42'0 0.0
2014-Sep-10 04:32N 34°43' W 076°42'0 0.0
2014-Sep-10 03:29N 34°43' W 076°42'0 0.0
2014-Sep-10 02:32N 34°43' W 076°42'0 0.0
2014-Sep-10 01:32N 34°43' W 076°42'0 0.0
2014-Sep-10 00:32N 34°43' W 076°42'0 0.0
2014-Sep-09 23:32N 34°43' W 076°42'0 0.0
2014-Sep-09 22:32N 34°43' W 076°42'0 0.0
2014-Sep-09 21:32N 34°43' W 076°42'0 0.0
2014-Sep-09 20:32N 34°43' W 076°42'0 0.0
2014-Sep-09 19:32N 34°43' W 076°42'0 0.0
2014-Sep-09 18:32N 34°43' W 076°42'0 0.0
2014-Sep-09 17:32N 34°43' W 076°42'0 0.0
2014-Sep-09 16:32N 34°43' W 076°42'0 0.0
2014-Sep-09 15:32N 34°43' W 076°42'0 0.0
2014-Sep-09 14:32N 34°43' W 076°42'0 0.0
2014-Sep-09 13:32N 34°43' W 076°42'0 0.0
2014-Sep-09 12:32N 34°43' W 076°42'0 0.0
2014-Sep-09 11:32N 34°43' W 076°42'0 0.0
2014-Sep-09 10:32N 34°43' W 076°42'0 0.0
2014-Sep-09 09:32N 34°43' W 076°42'0 0.0
2014-Sep-09 08:32N 34°43' W 076°42'0 0.0
2014-Sep-09 07:32N 34°43' W 076°42'0 0.0
2014-Sep-09 06:32N 34°43' W 076°42'0 0.0
2014-Sep-09 05:32N 34°43' W 076°42'0 0.0
2014-Sep-09 04:32N 34°43' W 076°42'0 0.0
2014-Sep-09 03:29N 34°43' W 076°42'0 0.0
2014-Sep-09 02:32N 34°43' W 076°42'0 0.0
2014-Sep-09 01:32N 34°43' W 076°42'0 0.0
2014-Sep-09 00:32N 34°43' W 076°42'0 0.0
2014-Sep-08 23:32N 34°43' W 076°42'0 0.0
2014-Sep-08 22:32N 34°43' W 076°42'0 0.0
2014-Sep-08 21:32N 34°43' W 076°42'0 0.0
2014-Sep-08 20:32N 34°43' W 076°42'0 0.0
2014-Sep-08 19:32N 34°43' W 076°42'0 0.0
2014-Sep-08 18:32N 34°43' W 076°42'0 0.0
2014-Sep-08 17:32N 34°43' W 076°42'0 0.0
2014-Sep-08 16:32N 34°43' W 076°42'0 0.0
2014-Sep-08 15:32N 34°43' W 076°42'0 0.0
2014-Sep-08 14:32N 34°43' W 076°42'0 0.0
2014-Sep-08 13:32N 34°43' W 076°42'1 1.5
2014-Sep-08 12:33N 34°42' W 076°41'7 7.0
2014-Sep-08 11:34N 34°35' W 076°40'1 1.1
2014-Sep-08 10:33N 34°34' W 076°41'3 3.0
2014-Sep-08 09:33N 34°32' W 076°43'8 8.1
2014-Sep-08 08:33N 34°24' W 076°46'  
2014-Sep-06 03:33N 27°05' W 079°44'2017.8
2014-Sep-06 02:27N 26°45' W 079°47'1617.8
2014-Sep-06 01:33N 26°29' W 079°48'1817.8
2014-Sep-06 00:34N 26°11' W 079°49'1817.7
2014-Sep-05 23:34N 25°54' W 079°51'1817.8
2014-Sep-05 22:32N 25°35' W 079°52'1717.7
2014-Sep-05 21:33N 25°18' W 079°54'1817.3
2014-Sep-05 20:33N 25°01' W 079°55'  
2014-Sep-03 06:29N 29°21' W 094°44'7 8.1
2014-Sep-03 05:33N 29°26' W 094°50'1010.1
2014-Sep-03 04:33N 29°35' W 094°56'9 9.0
2014-Sep-03 03:33N 29°42' W 095°01'5 5.2
2014-Sep-03 02:33N 29°44' W 095°07'6 5.5
2014-Sep-03 01:33N 29°43' W 095°13'  

Dump ship's entire track history